sensor_id;sensor_type;location;lat;lon;timestamp;pressure;altitude;pressure_sealevel;temperature;humidity
55010;BME280;40903;51.638;7.528;2023-03-20T00:00:42;101284.06;;;10.16;100.00
55010;BME280;40903;51.638;7.528;2023-03-20T00:03:09;101288.44;;;10.17;100.00
55010;BME280;40903;51.638;7.528;2023-03-20T00:05:35;101290.06;;;10.13;100.00
55010;BME280;40903;51.638;7.528;2023-03-20T00:08:00;101287.34;;;10.13;100.00
55010;BME280;40903;51.638;7.528;2023-03-20T00:10:29;101298.50;;;10.12;100.00
55010;BME280;40903;51.638;7.528;2023-03-20T00:12:55;101308.31;;;10.13;100.00
55010;BME280;40903;51.638;7.528;2023-03-20T00:15:29;101299.34;;;10.07;100.00
55010;BME280;40903;51.638;7.528;2023-03-20T00:17:55;101309.16;;;10.08;100.00
55010;BME280;40903;51.638;7.528;2023-03-20T00:20:21;101306.44;;;10.08;100.00
55010;BME280;40903;51.638;7.528;2023-03-20T00:22:46;101305.31;;;10.04;100.00
55010;BME280;40903;51.638;7.528;2023-03-20T00:25:12;101309.44;;;10.02;100.00
55010;BME280;40903;51.638;7.528;2023-03-20T00:27:39;101302.56;;;9.99;100.00
55010;BME280;40903;51.638;7.528;2023-03-20T00:30:13;101309.66;;;10.00;100.00
55010;BME280;40903;51.638;7.528;2023-03-20T00:32:40;101312.09;;;9.97;100.00
55010;BME280;40903;51.638;7.528;2023-03-20T00:37:50;101308.84;;;9.90;100.00
55010;BME280;40903;51.638;7.528;2023-03-20T00:40:15;101313.22;;;9.86;100.00
55010;BME280;40903;51.638;7.528;2023-03-20T00:42:41;101318.66;;;9.86;100.00
55010;BME280;40903;51.638;7.528;2023-03-20T00:45:09;101314.00;;;9.81;100.00
55010;BME280;40903;51.638;7.528;2023-03-20T00:47:36;101311.84;;;9.78;100.00
55010;BME280;40903;51.638;7.528;2023-03-20T00:50:05;101319.47;;;9.76;100.00
55010;BME280;40903;51.638;7.528;2023-03-20T00:52:31;101320.25;;;9.72;100.00
55010;BME280;40903;51.638;7.528;2023-03-20T00:54:56;101316.16;;;9.69;100.00
55010;BME280;40903;51.638;7.528;2023-03-20T00:57:28;101309.34;;;9.67;100.00
55010;BME280;40903;51.638;7.528;2023-03-20T00:59:58;101307.72;;;9.66;100.00
55010;BME280;40903;51.638;7.528;2023-03-20T01:02:26;101312.06;;;9.57;100.00
55010;BME280;40903;51.638;7.528;2023-03-20T01:04:52;101304.72;;;9.63;100.00
55010;BME280;40903;51.638;7.528;2023-03-20T01:07:18;101309.34;;;9.57;100.00
55010;BME280;40903;51.638;7.528;2023-03-20T01:09:43;101305.25;;;9.55;100.00
55010;BME280;40903;51.638;7.528;2023-03-20T01:12:11;101307.72;;;9.56;100.00
55010;BME280;40903;51.638;7.528;2023-03-20T01:14:37;101295.44;;;9.54;100.00
55010;BME280;40903;51.638;7.528;2023-03-20T01:17:03;101296.25;;;9.49;100.00
55010;BME280;40903;51.638;7.528;2023-03-20T01:19:28;101293.81;;;9.48;100.00
55010;BME280;40903;51.638;7.528;2023-03-20T01:21:54;101298.69;;;9.46;100.00
55010;BME280;40903;51.638;7.528;2023-03-20T01:24:19;101300.59;;;9.45;100.00
55010;BME280;40903;51.638;7.528;2023-03-20T01:26:45;101313.66;;;9.43;100.00
55010;BME280;40903;51.638;7.528;2023-03-20T01:31:38;101309.56;;;9.41;100.00
55010;BME280;40903;51.638;7.528;2023-03-20T01:34:04;101318.28;;;9.43;100.00
55010;BME280;40903;51.638;7.528;2023-03-20T01:36:30;101317.47;;;9.42;100.00
55010;BME280;40903;51.638;7.528;2023-03-20T01:38:56;101326.44;;;9.43;100.00
55010;BME280;40903;51.638;7.528;2023-03-20T01:41:22;101325.91;;;9.41;100.00
55010;BME280;40903;51.638;7.528;2023-03-20T01:43:48;101330.53;;;9.45;100.00
55010;BME280;40903;51.638;7.528;2023-03-20T01:46:15;101330.00;;;9.43;100.00
55010;BME280;40903;51.638;7.528;2023-03-20T01:51:15;101331.88;;;9.38;100.00
55010;BME280;40903;51.638;7.528;2023-03-20T01:53:40;101332.44;;;9.40;100.00
55010;BME280;40903;51.638;7.528;2023-03-20T01:56:06;101344.41;;;9.39;100.00
55010;BME280;40903;51.638;7.528;2023-03-20T01:58:33;101351.72;;;9.38;100.00
55010;BME280;40903;51.638;7.528;2023-03-20T02:01:01;101350.09;;;9.37;100.00
55010;BME280;40903;51.638;7.528;2023-03-20T02:03:27;101342.47;;;9.34;100.00
55010;BME280;40903;51.638;7.528;2023-03-20T02:05:54;101337.31;;;9.38;100.00
55010;BME280;40903;51.638;7.528;2023-03-20T02:09:02;101339.50;;;9.36;100.00
55010;BME280;40903;51.638;7.528;2023-03-20T02:11:08;101325.59;;;9.37;100.00
55010;BME280;40903;51.638;7.528;2023-03-20T02:13:33;101326.72;;;9.41;100.00
55010;BME280;40903;51.638;7.528;2023-03-20T02:18:31;101320.75;;;9.39;100.00
55010;BME280;40903;51.638;7.528;2023-03-20T02:31:35;101344.66;;;9.32;100.00
55010;BME280;40903;51.638;7.528;2023-03-20T02:39:14;101350.03;;;9.22;100.00
55010;BME280;40903;51.638;7.528;2023-03-20T02:46:52;101337.53;;;9.21;100.00
55010;BME280;40903;51.638;7.528;2023-03-20T02:49:38;101331.28;;;9.21;100.00
55010;BME280;40903;51.638;7.528;2023-03-20T02:55:09;101332.06;;;9.21;100.00
55010;BME280;40903;51.638;7.528;2023-03-20T02:57:30;101340.00;;;9.23;100.00
55010;BME280;40903;51.638;7.528;2023-03-20T03:00:19;101344.34;;;9.24;100.00
55010;BME280;40903;51.638;7.528;2023-03-20T03:02:52;101343.50;;;9.23;100.00
55010;BME280;40903;51.638;7.528;2023-03-20T03:05:20;101342.97;;;9.21;100.00
55010;BME280;40903;51.638;7.528;2023-03-20T03:07:47;101348.41;;;9.21;100.00
55010;BME280;40903;51.638;7.528;2023-03-20T03:10:16;101339.44;;;9.21;100.00
55010;BME280;40903;51.638;7.528;2023-03-20T03:12:44;101347.84;;;9.19;100.00
55010;BME280;40903;51.638;7.528;2023-03-20T03:15:13;101348.69;;;9.20;100.00
55010;BME280;40903;51.638;7.528;2023-03-20T03:17:40;101356.31;;;9.18;100.00
55010;BME280;40903;51.638;7.528;2023-03-20T03:22:44;101350.03;;;9.12;100.00
55010;BME280;40903;51.638;7.528;2023-03-20T03:25:11;101356.03;;;9.19;100.00
55010;BME280;40903;51.638;7.528;2023-03-20T03:27:37;101357.63;;;9.15;100.00
55010;BME280;40903;51.638;7.528;2023-03-20T03:30:06;101357.09;;;9.13;100.00
55010;BME280;40903;51.638;7.528;2023-03-20T03:32:35;101351.09;;;9.11;100.00
55010;BME280;40903;51.638;7.528;2023-03-20T03:35:03;101345.38;;;9.13;100.00
55010;BME280;40903;51.638;7.528;2023-03-20T03:37:40;101342.94;;;9.11;100.00
55010;BME280;40903;51.638;7.528;2023-03-20T03:40:31;101331.22;;;9.11;100.00
55010;BME280;40903;51.638;7.528;2023-03-20T03:43:09;101310.28;;;9.11;100.00
55010;BME280;40903;51.638;7.528;2023-03-20T03:45:39;101312.19;;;9.11;100.00
55010;BME280;40903;51.638;7.528;2023-03-20T03:48:16;101317.38;;;9.12;100.00
55010;BME280;40903;51.638;7.528;2023-03-20T03:50:43;101309.22;;;9.12;100.00
55010;BME280;40903;51.638;7.528;2023-03-20T03:53:12;101307.03;;;9.14;100.00
55010;BME280;40903;51.638;7.528;2023-03-20T03:55:40;101300.25;;;9.22;100.00
55010;BME280;40903;51.638;7.528;2023-03-20T03:58:24;101301.06;;;9.22;100.00
55010;BME280;40903;51.638;7.528;2023-03-20T04:00:52;101301.59;;;9.19;100.00
55010;BME280;40903;51.638;7.528;2023-03-20T04:03:19;101291.50;;;9.15;100.00
55010;BME280;40903;51.638;7.528;2023-03-20T04:05:45;101289.06;;;9.13;100.00
55010;BME280;40903;51.638;7.528;2023-03-20T04:08:12;101293.16;;;9.16;100.00
55010;BME280;40903;51.638;7.528;2023-03-20T04:10:38;101294.22;;;9.10;100.00
55010;BME280;40903;51.638;7.528;2023-03-20T04:13:03;101297.19;;;9.08;100.00
55010;BME280;40903;51.638;7.528;2023-03-20T04:15:29;101303.72;;;9.07;100.00
55010;BME280;40903;51.638;7.528;2023-03-20T04:17:54;101310.25;;;9.06;100.00
55010;BME280;40903;51.638;7.528;2023-03-20T04:20:19;101319.50;;;9.05;100.00
55010;BME280;40903;51.638;7.528;2023-03-20T04:22:45;101327.66;;;9.00;100.00
55010;BME280;40903;51.638;7.528;2023-03-20T04:25:21;101321.91;;;8.97;100.00
55010;BME280;40903;51.638;7.528;2023-03-20T04:27:46;101313.44;;;8.93;100.00
55010;BME280;40903;51.638;7.528;2023-03-20T04:30:12;101321.34;;;8.90;100.00
55010;BME280;40903;51.638;7.528;2023-03-20T04:32:37;101312.34;;;8.84;100.00
55010;BME280;40903;51.638;7.528;2023-03-20T04:35:03;101316.69;;;8.85;100.00
55010;BME280;40903;51.638;7.528;2023-03-20T04:37:28;101311.28;;;8.90;100.00
55010;BME280;40903;51.638;7.528;2023-03-20T04:39:54;101309.09;;;8.92;100.00
55010;BME280;40903;51.638;7.528;2023-03-20T04:42:19;101311.81;;;8.92;100.00
55010;BME280;40903;51.638;7.528;2023-03-20T04:44:45;101306.13;;;8.89;100.00
55010;BME280;40903;51.638;7.528;2023-03-20T04:47:10;101301.47;;;8.89;100.00
55010;BME280;40903;51.638;7.528;2023-03-20T04:49:35;101304.75;;;8.91;100.00
55010;BME280;40903;51.638;7.528;2023-03-20T04:52:00;101291.13;;;8.86;100.00
55010;BME280;40903;51.638;7.528;2023-03-20T04:54:26;101296.81;;;8.85;100.00
55010;BME280;40903;51.638;7.528;2023-03-20T04:56:51;101289.75;;;8.84;100.00
55010;BME280;40903;51.638;7.528;2023-03-20T04:59:16;101286.78;;;8.85;100.00
55010;BME280;40903;51.638;7.528;2023-03-20T05:01:42;101283.22;;;8.85;100.00
55010;BME280;40903;51.638;7.528;2023-03-20T05:04:07;101283.47;;;8.78;100.00
55010;BME280;40903;51.638;7.528;2023-03-20T05:06:32;101298.13;;;8.67;100.00
55010;BME280;40903;51.638;7.528;2023-03-20T05:08:58;101302.41;;;8.63;100.00
55010;BME280;40903;51.638;7.528;2023-03-20T05:11:26;101282.88;;;8.66;100.00
55010;BME280;40903;51.638;7.528;2023-03-20T05:13:52;101285.06;;;8.64;100.00
55010;BME280;40903;51.638;7.528;2023-03-20T05:16:17;101277.13;;;8.58;100.00
55010;BME280;40903;51.638;7.528;2023-03-20T05:18:43;101290.72;;;8.58;100.00
55010;BME280;40903;51.638;7.528;2023-03-20T05:21:08;101288.50;;;8.55;100.00
55010;BME280;40903;51.638;7.528;2023-03-20T05:23:33;101289.88;;;8.52;100.00
55010;BME280;40903;51.638;7.528;2023-03-20T05:25:59;101291.75;;;8.52;100.00
55010;BME280;40903;51.638;7.528;2023-03-20T05:28:25;101293.38;;;8.53;100.00
55010;BME280;40903;51.638;7.528;2023-03-20T05:30:50;101295.00;;;8.49;100.00
55010;BME280;40903;51.638;7.528;2023-03-20T05:33:15;101292.53;;;8.47;100.00
55010;BME280;40903;51.638;7.528;2023-03-20T05:35:41;101299.34;;;8.45;100.00
55010;BME280;40903;51.638;7.528;2023-03-20T05:38:06;101305.84;;;8.44;100.00
55010;BME280;40903;51.638;7.528;2023-03-20T05:40:31;101302.84;;;8.45;100.00
55010;BME280;40903;51.638;7.528;2023-03-20T05:42:57;101310.44;;;8.43;100.00
55010;BME280;40903;51.638;7.528;2023-03-20T05:45:22;101317.53;;;8.44;100.00
55010;BME280;40903;51.638;7.528;2023-03-20T05:47:47;101306.41;;;8.46;100.00
55010;BME280;40903;51.638;7.528;2023-03-20T05:50:13;101305.31;;;8.42;100.00
55010;BME280;40903;51.638;7.528;2023-03-20T05:52:38;101306.09;;;8.42;100.00
55010;BME280;40903;51.638;7.528;2023-03-20T05:55:03;101316.44;;;8.45;100.00
55010;BME280;40903;51.638;7.528;2023-03-20T05:57:29;101318.91;;;8.47;100.00
55010;BME280;40903;51.638;7.528;2023-03-20T05:59:55;101314.81;;;8.44;100.00
55010;BME280;40903;51.638;7.528;2023-03-20T06:02:21;101314.28;;;8.47;100.00
55010;BME280;40903;51.638;7.528;2023-03-20T06:04:46;101311.84;;;8.46;100.00
55010;BME280;40903;51.638;7.528;2023-03-20T06:07:11;101306.72;;;8.49;100.00
55010;BME280;40903;51.638;7.528;2023-03-20T06:09:37;101315.09;;;8.48;100.00
55010;BME280;40903;51.638;7.528;2023-03-20T06:12:02;101306.94;;;8.43;100.00
55010;BME280;40903;51.638;7.528;2023-03-20T06:14:27;101310.44;;;8.38;100.00
55010;BME280;40903;51.638;7.528;2023-03-20T06:16:52;101310.97;;;8.35;100.00
55010;BME280;40903;51.638;7.528;2023-03-20T06:19:18;101313.16;;;8.38;100.00
55010;BME280;40903;51.638;7.528;2023-03-20T06:21:44;101325.66;;;8.39;100.00
55010;BME280;40903;51.638;7.528;2023-03-20T06:24:09;101328.91;;;8.36;100.00
55010;BME280;40903;51.638;7.528;2023-03-20T06:26:35;101326.44;;;8.40;100.00
55010;BME280;40903;51.638;7.528;2023-03-20T06:29:00;101323.78;;;8.45;100.00
55010;BME280;40903;51.638;7.528;2023-03-20T06:31:25;101330.31;;;8.44;100.00
55010;BME280;40903;51.638;7.528;2023-03-20T06:33:51;101338.72;;;8.42;100.00
55010;BME280;40903;51.638;7.528;2023-03-20T06:36:16;101335.44;;;8.40;100.00
55010;BME280;40903;51.638;7.528;2023-03-20T06:38:42;101343.91;;;8.44;100.00
55010;BME280;40903;51.638;7.528;2023-03-20T06:41:07;101345.78;;;8.43;100.00
55010;BME280;40903;51.638;7.528;2023-03-20T06:43:32;101331.94;;;8.45;100.00
55010;BME280;40903;51.638;7.528;2023-03-20T06:45:58;101342.03;;;8.49;100.00
55010;BME280;40903;51.638;7.528;2023-03-20T06:48:23;101342.06;;;8.54;100.00
55010;BME280;40903;51.638;7.528;2023-03-20T06:50:48;101338.50;;;8.54;100.00
55010;BME280;40903;51.638;7.528;2023-03-20T06:53:14;101345.88;;;8.53;100.00
55010;BME280;40903;51.638;7.528;2023-03-20T06:55:40;101343.94;;;8.49;100.00
55010;BME280;40903;51.638;7.528;2023-03-20T06:58:06;101345.25;;;8.46;100.00
55010;BME280;40903;51.638;7.528;2023-03-20T07:00:31;101344.69;;;8.44;100.00
55010;BME280;40903;51.638;7.528;2023-03-20T07:02:57;101350.13;;;8.44;100.00
55010;BME280;40903;51.638;7.528;2023-03-20T07:05:22;101348.53;;;8.48;100.00
55010;BME280;40903;51.638;7.528;2023-03-20T07:07:47;101349.66;;;8.52;100.00
55010;BME280;40903;51.638;7.528;2023-03-20T07:10:12;101360.31;;;8.59;100.00
55010;BME280;40903;51.638;7.528;2023-03-20T07:12:38;101362.22;;;8.63;100.00
55010;BME280;40903;51.638;7.528;2023-03-20T07:15:03;101364.94;;;8.63;100.00
55010;BME280;40903;51.638;7.528;2023-03-20T07:17:29;101361.44;;;8.68;100.00
55010;BME280;40903;51.638;7.528;2023-03-20T07:19:55;101367.44;;;8.70;100.00
55010;BME280;40903;51.638;7.528;2023-03-20T07:22:22;101375.38;;;8.76;100.00
55010;BME280;40903;51.638;7.528;2023-03-20T07:24:48;101382.75;;;8.86;100.00
55010;BME280;40903;51.638;7.528;2023-03-20T07:27:13;101382.25;;;8.89;100.00
55010;BME280;40903;51.638;7.528;2023-03-20T07:29:38;101380.41;;;8.94;100.00
55010;BME280;40903;51.638;7.528;2023-03-20T07:32:04;101382.06;;;9.00;100.00
55010;BME280;40903;51.638;7.528;2023-03-20T07:34:29;101384.00;;;9.10;98.70
55010;BME280;40903;51.638;7.528;2023-03-20T07:36:54;101389.75;;;9.13;99.25
55010;BME280;40903;51.638;7.528;2023-03-20T07:39:20;101382.44;;;9.19;97.92
55010;BME280;40903;51.638;7.528;2023-03-20T07:41:46;101378.94;;;9.28;97.34
55010;BME280;40903;51.638;7.528;2023-03-20T07:44:11;101377.56;;;9.31;96.72
55010;BME280;40903;51.638;7.528;2023-03-20T07:46:38;101379.53;;;9.40;96.43
55010;BME280;40903;51.638;7.528;2023-03-20T07:49:04;101377.63;;;9.46;95.34
55010;BME280;40903;51.638;7.528;2023-03-20T07:51:30;101373.56;;;9.48;93.51
55010;BME280;40903;51.638;7.528;2023-03-20T07:53:55;101376.56;;;9.52;93.59
55010;BME280;40903;51.638;7.528;2023-03-20T07:56:22;101378.75;;;9.60;92.78
55010;BME280;40903;51.638;7.528;2023-03-20T07:58:47;101374.94;;;9.61;94.97
55010;BME280;40903;51.638;7.528;2023-03-20T08:01:12;101377.47;;;9.72;92.89
55010;BME280;40903;51.638;7.528;2023-03-20T08:03:38;101386.47;;;9.77;91.64
55010;BME280;40903;51.638;7.528;2023-03-20T08:06:03;101387.00;;;9.84;89.54
55010;BME280;40903;51.638;7.528;2023-03-20T08:08:30;101389.19;;;9.82;89.10
55010;BME280;40903;51.638;7.528;2023-03-20T08:10:56;101382.66;;;9.83;87.61
55010;BME280;40903;51.638;7.528;2023-03-20T08:13:21;101376.41;;;9.88;88.75
55010;BME280;40903;51.638;7.528;2023-03-20T08:15:46;101381.31;;;9.96;87.55
55010;BME280;40903;51.638;7.528;2023-03-20T08:18:12;101384.06;;;10.01;85.85
55010;BME280;40903;51.638;7.528;2023-03-20T08:20:37;101399.28;;;9.97;86.05
55010;BME280;40903;51.638;7.528;2023-03-20T08:23:02;101385.16;;;10.00;85.37
55010;BME280;40903;51.638;7.528;2023-03-20T08:25:27;101393.06;;;10.01;87.48
55010;BME280;40903;51.638;7.528;2023-03-20T08:27:57;101396.06;;;10.05;84.66
55010;BME280;40903;51.638;7.528;2023-03-20T08:30:22;101396.06;;;10.10;86.26
55010;BME280;40903;51.638;7.528;2023-03-20T08:32:47;101398.53;;;10.11;84.50
55010;BME280;40903;51.638;7.528;2023-03-20T08:35:13;101395.53;;;10.23;85.93
55010;BME280;40903;51.638;7.528;2023-03-20T08:37:38;101406.47;;;10.38;85.42
55010;BME280;40903;51.638;7.528;2023-03-20T08:40:04;101398.84;;;10.45;82.52
55010;BME280;40903;51.638;7.528;2023-03-20T08:42:30;101401.00;;;10.53;80.90
55010;BME280;40903;51.638;7.528;2023-03-20T08:44:55;101403.72;;;10.58;80.77
55010;BME280;40903;51.638;7.528;2023-03-20T08:47:20;101402.63;;;10.54;81.15
55010;BME280;40903;51.638;7.528;2023-03-20T08:49:49;101402.09;;;10.57;80.93
55010;BME280;40903;51.638;7.528;2023-03-20T08:52:14;101398.81;;;10.55;80.43
55010;BME280;40903;51.638;7.528;2023-03-20T08:54:40;101396.34;;;10.63;81.62
55010;BME280;40903;51.638;7.528;2023-03-20T08:57:05;101397.72;;;10.76;81.39
55010;BME280;40903;51.638;7.528;2023-03-20T08:59:30;101393.63;;;10.83;78.39
55010;BME280;40903;51.638;7.528;2023-03-20T09:01:56;101400.16;;;10.97;78.49
55010;BME280;40903;51.638;7.528;2023-03-20T09:04:22;101399.31;;;10.97;78.27
55010;BME280;40903;51.638;7.528;2023-03-20T09:06:48;101396.88;;;10.90;79.30
55010;BME280;40903;51.638;7.528;2023-03-20T09:09:13;101398.50;;;11.01;75.98
55010;BME280;40903;51.638;7.528;2023-03-20T09:11:39;101394.97;;;10.96;77.68
55010;BME280;40903;51.638;7.528;2023-03-20T09:14:06;101388.91;;;11.04;77.00
55010;BME280;40903;51.638;7.528;2023-03-20T09:16:31;101395.22;;;10.99;76.02
55010;BME280;40903;51.638;7.528;2023-03-20T09:18:57;101394.38;;;11.04;76.23
55010;BME280;40903;51.638;7.528;2023-03-20T09:21:22;101388.38;;;11.02;73.28
55010;BME280;40903;51.638;7.528;2023-03-20T09:23:47;101393.88;;;10.92;73.91
55010;BME280;40903;51.638;7.528;2023-03-20T09:26:13;101399.31;;;10.97;75.98
55010;BME280;40903;51.638;7.528;2023-03-20T09:28:38;101395.50;;;10.98;73.76
55010;BME280;40903;51.638;7.528;2023-03-20T09:31:03;101415.69;;;10.87;73.03
55010;BME280;40903;51.638;7.528;2023-03-20T09:33:32;101397.16;;;10.84;74.33
55010;BME280;40903;51.638;7.528;2023-03-20T09:35:57;101405.31;;;10.89;72.36
55010;BME280;40903;51.638;7.528;2023-03-20T09:38:22;101402.34;;;10.90;70.70
55010;BME280;40903;51.638;7.528;2023-03-20T09:40:49;101392.25;;;10.91;70.51
55010;BME280;40903;51.638;7.528;2023-03-20T09:48:34;101413.81;;;10.72;71.18
55010;BME280;40903;51.638;7.528;2023-03-20T09:53:34;101405.91;;;10.71;71.90
55010;BME280;40903;51.638;7.528;2023-03-20T09:56:02;101408.38;;;10.67;70.24
55010;BME280;40903;51.638;7.528;2023-03-20T09:58:29;101410.00;;;10.68;72.99
55010;BME280;40903;51.638;7.528;2023-03-20T10:00:57;101403.16;;;10.71;72.14
55010;BME280;40903;51.638;7.528;2023-03-20T10:03:25;101404.81;;;10.72;71.95
55010;BME280;40903;51.638;7.528;2023-03-20T10:08:25;101396.91;;;10.85;71.44
55010;BME280;40903;51.638;7.528;2023-03-20T10:11:20;101402.59;;;10.99;71.69
55010;BME280;40903;51.638;7.528;2023-03-20T10:14:02;101409.09;;;11.13;69.70
55010;BME280;40903;51.638;7.528;2023-03-20T10:19:21;101398.44;;;11.11;71.76
55010;BME280;40903;51.638;7.528;2023-03-20T10:21:48;101410.75;;;11.09;68.48
55010;BME280;40903;51.638;7.528;2023-03-20T10:24:22;101402.84;;;11.07;69.64
55010;BME280;40903;51.638;7.528;2023-03-20T10:26:50;101403.13;;;11.01;69.02
55010;BME280;40903;51.638;7.528;2023-03-20T10:42:16;101392.69;;;11.28;66.34
55010;BME280;40903;51.638;7.528;2023-03-20T10:44:45;101391.59;;;11.19;66.28
55010;BME280;40903;51.638;7.528;2023-03-20T10:47:13;101387.28;;;11.13;66.75
55010;BME280;40903;51.638;7.528;2023-03-20T10:49:46;101388.63;;;11.15;68.47
55010;BME280;40903;51.638;7.528;2023-03-20T10:52:17;101377.66;;;11.25;69.58
55010;BME280;40903;51.638;7.528;2023-03-20T10:54:45;101375.97;;;11.39;69.38
55010;BME280;40903;51.638;7.528;2023-03-20T10:57:22;101374.63;;;11.37;68.75
55010;BME280;40903;51.638;7.528;2023-03-20T10:59:52;101373.78;;;11.41;67.56
55010;BME280;40903;51.638;7.528;2023-03-20T11:02:20;101370.25;;;11.41;67.89
55010;BME280;40903;51.638;7.528;2023-03-20T11:04:47;101376.28;;;11.33;66.99
55010;BME280;40903;51.638;7.528;2023-03-20T11:07:18;101373.63;;;11.13;65.89
55010;BME280;40903;51.638;7.528;2023-03-20T11:09:57;101363.25;;;11.15;66.53
55010;BME280;40903;51.638;7.528;2023-03-20T11:12:52;101371.47;;;11.00;66.16
55010;BME280;40903;51.638;7.528;2023-03-20T11:18:03;101366.03;;;11.05;64.65
55010;BME280;40903;51.638;7.528;2023-03-20T11:20:38;101368.19;;;11.08;63.61
55010;BME280;40903;51.638;7.528;2023-03-20T11:23:10;101364.88;;;11.16;64.05
55010;BME280;40903;51.638;7.528;2023-03-20T11:25:57;101359.13;;;11.27;65.87
55010;BME280;40903;51.638;7.528;2023-03-20T11:28:29;101358.25;;;11.37;65.01
55010;BME280;40903;51.638;7.528;2023-03-20T11:30:58;101354.34;;;11.53;63.35
55010;BME280;40903;51.638;7.528;2023-03-20T11:33:26;101354.06;;;11.54;64.15
55010;BME280;40903;51.638;7.528;2023-03-20T11:35:52;101353.25;;;11.54;61.26
55010;BME280;40903;51.638;7.528;2023-03-20T11:38:20;101342.84;;;11.61;61.57
55010;BME280;40903;51.638;7.528;2023-03-20T11:40:46;101345.81;;;11.69;63.45
55010;BME280;40903;51.638;7.528;2023-03-20T11:43:20;101339.16;;;11.85;62.73
55010;BME280;40903;51.638;7.528;2023-03-20T11:45:56;101336.72;;;11.83;60.53
55010;BME280;40903;51.638;7.528;2023-03-20T11:48:40;101343.88;;;11.74;60.19
55010;BME280;40903;51.638;7.528;2023-03-20T11:51:07;101341.88;;;11.85;60.73
55010;BME280;40903;51.638;7.528;2023-03-20T11:53:38;101338.88;;;11.86;58.49
55010;BME280;40903;51.638;7.528;2023-03-20T11:58:54;101343.88;;;11.74;61.20
55010;BME280;40903;51.638;7.528;2023-03-20T12:01:23;101340.56;;;11.77;63.31
55010;BME280;40903;51.638;7.528;2023-03-20T12:03:51;101329.03;;;11.85;61.55
55010;BME280;40903;51.638;7.528;2023-03-20T12:06:25;101335.00;;;11.92;61.08
55010;BME280;40903;51.638;7.528;2023-03-20T12:09:01;101339.88;;;12.00;60.42
55010;BME280;40903;51.638;7.528;2023-03-20T12:11:41;101334.34;;;12.05;59.92
55010;BME280;40903;51.638;7.528;2023-03-20T12:14:14;101329.72;;;12.01;59.59
55010;BME280;40903;51.638;7.528;2023-03-20T12:16:40;101336.59;;;11.98;61.59
55010;BME280;40903;51.638;7.528;2023-03-20T12:19:11;101330.34;;;11.93;61.22
55010;BME280;40903;51.638;7.528;2023-03-20T12:21:45;101338.81;;;11.96;61.80
55010;BME280;40903;51.638;7.528;2023-03-20T12:24:13;101337.19;;;11.90;63.10
55010;BME280;40903;51.638;7.528;2023-03-20T12:26:50;101334.69;;;11.99;62.46
55010;BME280;40903;51.638;7.528;2023-03-20T12:31:48;101325.69;;;11.98;62.52
55010;BME280;40903;51.638;7.528;2023-03-20T12:36:42;101333.88;;;11.98;62.26
55010;BME280;40903;51.638;7.528;2023-03-20T12:39:27;101336.09;;;11.91;62.51
55010;BME280;40903;51.638;7.528;2023-03-20T12:47:21;101327.63;;;11.93;63.80
55010;BME280;40903;51.638;7.528;2023-03-20T12:52:28;101340.88;;;11.76;64.97
55010;BME280;40903;51.638;7.528;2023-03-20T12:57:53;101339.03;;;11.62;63.89
55010;BME280;40903;51.638;7.528;2023-03-20T13:03:03;101334.44;;;11.47;68.58
55010;BME280;40903;51.638;7.528;2023-03-20T13:10:39;101330.47;;;11.20;69.07
55010;BME280;40903;51.638;7.528;2023-03-20T13:13:20;101328.81;;;11.24;70.52
55010;BME280;40903;51.638;7.528;2023-03-20T13:18:43;101331.28;;;11.20;70.81
55010;BME280;40903;51.638;7.528;2023-03-20T13:21:12;101327.44;;;11.21;68.82
55010;BME280;40903;51.638;7.528;2023-03-20T13:23:43;101331.06;;;11.07;69.79
55010;BME280;40903;51.638;7.528;2023-03-20T13:26:25;101322.66;;;10.98;70.06
55010;BME280;40903;51.638;7.528;2023-03-20T13:36:49;101330.03;;;10.83;69.69
55010;BME280;40903;51.638;7.528;2023-03-20T13:39:18;101307.66;;;10.91;72.37
55010;BME280;40903;51.638;7.528;2023-03-20T13:41:46;101319.34;;;11.01;71.12
55010;BME280;40903;51.638;7.528;2023-03-20T13:44:13;101313.03;;;11.11;71.15
55010;BME280;40903;51.638;7.528;2023-03-20T13:46:50;101308.34;;;11.21;69.06
55010;BME280;40903;51.638;7.528;2023-03-20T13:49:30;101309.09;;;11.37;69.68
55010;BME280;40903;51.638;7.528;2023-03-20T13:52:07;101312.38;;;11.34;67.53
55010;BME280;40903;51.638;7.528;2023-03-20T13:54:46;101306.63;;;11.35;65.81
55010;BME280;40903;51.638;7.528;2023-03-20T13:57:20;101304.22;;;11.29;66.36
55010;BME280;40903;51.638;7.528;2023-03-20T13:59:52;101304.50;;;11.22;66.26
55010;BME280;40903;51.638;7.528;2023-03-20T14:02:25;101296.94;;;11.14;68.40
55010;BME280;40903;51.638;7.528;2023-03-20T14:04:56;101303.47;;;11.13;66.39
55010;BME280;40903;51.638;7.528;2023-03-20T14:07:30;101306.47;;;11.12;67.92
55010;BME280;40903;51.638;7.528;2023-03-20T14:10:02;101310.34;;;11.01;67.24
55010;BME280;40903;51.638;7.528;2023-03-20T14:12:42;101305.44;;;10.98;69.08
55010;BME280;40903;51.638;7.528;2023-03-20T14:15:12;101290.72;;;10.89;69.64
55010;BME280;40903;51.638;7.528;2023-03-20T14:17:37;101297.00;;;10.89;71.40
55010;BME280;40903;51.638;7.528;2023-03-20T14:20:50;101296.16;;;10.99;68.73
55010;BME280;40903;51.638;7.528;2023-03-20T14:22:56;101295.66;;;10.92;70.49
55010;BME280;40903;51.638;7.528;2023-03-20T14:25:22;101300.31;;;10.86;67.99
55010;BME280;40903;51.638;7.528;2023-03-20T14:27:52;101291.38;;;10.61;69.41
55010;BME280;40903;51.638;7.528;2023-03-20T14:30:51;101285.34;;;10.69;70.02
55010;BME280;40903;51.638;7.528;2023-03-20T14:38:26;101280.47;;;10.56;70.69
55010;BME280;40903;51.638;7.528;2023-03-20T14:40:59;101271.75;;;10.54;72.55
55010;BME280;40903;51.638;7.528;2023-03-20T14:48:58;101278.88;;;10.40;73.23